createdAt,value
2022-12-25T00:01:36.890Z,8.81
2022-12-25T00:04:07.376Z,8.73
2022-12-25T00:06:37.881Z,8.68
2022-12-25T00:09:11.062Z,8.53
2022-12-25T00:11:41.560Z,8.47
2022-12-25T00:14:11.935Z,8.54
2022-12-25T00:16:42.414Z,8.50
2022-12-25T00:19:12.878Z,8.45
2022-12-25T00:21:43.341Z,8.46
2022-12-25T00:24:16.343Z,8.50
2022-12-25T00:26:46.689Z,8.45
2022-12-25T00:29:16.981Z,8.45
2022-12-25T00:31:47.405Z,8.48
2022-12-25T00:34:17.924Z,8.49
2022-12-25T00:36:48.333Z,8.52
2022-12-25T00:39:21.395Z,8.55
2022-12-25T00:42:04.124Z,8.60
2022-12-25T00:44:34.567Z,8.62
2022-12-25T00:47:06.220Z,8.70
2022-12-25T00:49:36.848Z,8.65
2022-12-25T00:52:07.867Z,8.65
2022-12-25T00:54:41.335Z,8.57
2022-12-25T00:57:11.661Z,8.49
2022-12-25T00:59:42.034Z,8.46
2022-12-25T01:02:33.424Z,8.45
2022-12-25T01:05:04.916Z,8.46
2022-12-25T01:07:35.248Z,8.48
2022-12-25T01:10:22.581Z,8.52
2022-12-25T01:12:54.289Z,8.59
2022-12-25T01:15:24.678Z,8.67
2022-12-25T01:17:55.218Z,8.56
2022-12-25T01:20:25.615Z,8.54
2022-12-25T01:22:56.623Z,8.54
2022-12-25T01:25:29.593Z,8.53
2022-12-25T01:28:00.192Z,8.49
2022-12-25T01:30:31.711Z,8.48
2022-12-25T01:33:02.444Z,8.51
2022-12-25T01:35:32.889Z,8.44
2022-12-25T01:38:03.356Z,8.11
2022-12-25T01:40:37.583Z,7.91
2022-12-25T01:43:13.979Z,7.91
2022-12-25T01:45:49.667Z,7.92
2022-12-25T01:48:23.253Z,7.99
2022-12-25T01:50:58.980Z,8.00
2022-12-25T01:53:30.061Z,8.07
2022-12-25T01:56:06.858Z,8.09
2022-12-25T01:58:37.743Z,8.14
2022-12-25T02:01:09.996Z,8.18
2022-12-25T02:03:42.530Z,8.27
2022-12-25T02:06:13.304Z,8.27
2022-12-25T02:08:44.834Z,8.19
2022-12-25T02:11:37.724Z,8.15
2022-12-25T02:14:08.084Z,8.08
2022-12-25T02:16:57.414Z,7.98
2022-12-25T02:19:55.207Z,7.93
2022-12-25T02:22:37.854Z,7.99
2022-12-25T02:25:32.302Z,8.01
2022-12-25T02:28:17.245Z,7.98
2022-12-25T02:30:54.838Z,7.91
2022-12-25T02:33:46.258Z,7.92
2022-12-25T02:36:24.878Z,7.92
2022-12-25T02:39:23.421Z,7.83
2022-12-25T02:41:57.816Z,7.76
2022-12-25T02:44:45.768Z,7.67
2022-12-25T02:47:28.463Z,7.50
2022-12-25T02:50:13.111Z,7.39
2022-12-25T02:52:57.847Z,7.23
2022-12-25T02:55:48.144Z,7.16
2022-12-25T02:58:36.369Z,7.20
2022-12-25T03:01:41.367Z,7.23
2022-12-25T03:04:30.940Z,7.31
2022-12-25T03:07:12.689Z,7.22
2022-12-25T03:10:02.906Z,7.10
2022-12-25T03:12:49.281Z,7.17
2022-12-25T03:15:33.935Z,7.06
2022-12-25T03:18:11.341Z,6.96
2022-12-25T03:20:54.374Z,6.88
2022-12-25T03:23:43.700Z,6.91
2022-12-25T03:26:26.400Z,6.89
2022-12-25T03:28:56.860Z,6.91
2022-12-25T03:31:34.061Z,6.91
2022-12-25T03:34:45.296Z,6.96
2022-12-25T03:37:45.563Z,7.09
2022-12-25T03:40:39.351Z,7.15
2022-12-25T03:43:30.630Z,7.22
2022-12-25T03:46:19.790Z,7.25
2022-12-25T03:49:08.089Z,7.29
2022-12-25T03:51:56.120Z,7.37
2022-12-25T03:54:43.362Z,7.48
2022-12-25T03:57:26.967Z,7.55
2022-12-25T04:00:09.614Z,7.63
2022-12-25T04:02:53.429Z,7.62
2022-12-25T04:05:36.129Z,7.61
2022-12-25T04:08:21.324Z,7.69
2022-12-25T04:11:04.337Z,7.70
2022-12-25T04:13:46.983Z,7.61
2022-12-25T04:16:29.689Z,7.58
2022-12-25T04:19:12.387Z,7.50
2022-12-25T04:21:55.037Z,7.45
2022-12-25T04:24:40.317Z,7.40
2022-12-25T04:27:23.010Z,7.32
2022-12-25T04:30:05.678Z,7.29
2022-12-25T04:32:48.505Z,7.30
2022-12-25T04:35:31.425Z,7.34
2022-12-25T04:38:01.735Z,7.30
2022-12-25T04:40:34.763Z,7.29
2022-12-25T04:43:05.075Z,7.23
2022-12-25T04:45:35.323Z,7.22
2022-12-25T04:48:05.677Z,7.20
2022-12-25T04:50:36.038Z,7.17
2022-12-25T04:53:06.408Z,7.21
2022-12-25T04:55:39.386Z,7.25
2022-12-25T04:58:10.283Z,7.29
2022-12-25T05:00:40.825Z,7.25
2022-12-25T05:03:11.228Z,7.29
2022-12-25T05:05:43.423Z,7.45
2022-12-25T05:08:13.799Z,7.36
2022-12-25T05:10:46.759Z,7.31
2022-12-25T05:13:17.208Z,7.35
2022-12-25T05:15:47.686Z,7.35
2022-12-25T05:18:18.106Z,7.25
2022-12-25T05:20:56.004Z,7.13
2022-12-25T05:23:26.460Z,7.19
2022-12-25T05:25:59.825Z,7.16
2022-12-25T05:28:30.166Z,7.04
2022-12-25T05:31:00.728Z,7.03
2022-12-25T05:33:31.173Z,7.07
2022-12-25T05:36:01.675Z,7.14
2022-12-25T05:38:32.045Z,7.18
2022-12-25T05:41:05.179Z,7.26
2022-12-25T05:43:35.672Z,7.40
2022-12-25T05:46:09.377Z,7.46
2022-12-25T05:48:41.141Z,7.49
2022-12-25T05:51:14.671Z,7.48
2022-12-25T05:53:46.428Z,7.46
2022-12-25T05:56:19.500Z,7.43
2022-12-25T05:58:49.843Z,7.41
2022-12-25T06:01:23.428Z,7.39
2022-12-25T06:03:54.122Z,7.46
2022-12-25T06:06:24.661Z,7.54
2022-12-25T06:08:57.658Z,7.57
2022-12-25T06:11:30.608Z,7.62
2022-12-25T06:14:01.337Z,7.65
2022-12-25T06:16:37.608Z,7.66
2022-12-25T06:19:08.522Z,7.69
2022-12-25T06:21:38.979Z,7.71
2022-12-25T06:24:13.397Z,7.70
2022-12-25T06:26:49.115Z,7.79
2022-12-25T06:29:19.830Z,7.88
2022-12-25T06:31:50.282Z,7.85
2022-12-25T06:34:20.687Z,7.62
2022-12-25T06:36:51.012Z,7.51
2022-12-25T06:39:21.563Z,7.44
2022-12-25T06:41:54.739Z,7.42
2022-12-25T06:44:25.197Z,7.48
2022-12-25T06:46:56.898Z,7.49
2022-12-25T06:49:27.839Z,7.55
2022-12-25T06:51:58.383Z,7.48
2022-12-25T06:54:28.917Z,7.42
2022-12-25T06:57:01.949Z,7.37
2022-12-25T06:59:32.360Z,7.24
2022-12-25T07:02:03.206Z,7.13
2022-12-25T07:04:39.094Z,7.04
2022-12-25T07:07:11.857Z,7.00
2022-12-25T07:09:42.756Z,6.97
2022-12-25T07:12:23.588Z,6.94
2022-12-25T07:14:58.196Z,7.06
2022-12-25T07:17:28.539Z,7.04
2022-12-25T07:19:58.923Z,7.08
2022-12-25T07:22:31.978Z,7.17
2022-12-25T07:25:02.336Z,7.23
2022-12-25T07:27:35.315Z,7.30
2022-12-25T07:30:05.797Z,7.39
2022-12-25T07:32:36.221Z,7.50
2022-12-25T07:35:07.793Z,7.53
2022-12-25T07:37:38.106Z,7.50
2022-12-25T07:40:10.717Z,7.44
2022-12-25T07:42:43.677Z,7.43
2022-12-25T07:45:14.879Z,7.49
2022-12-25T07:47:44.897Z,7.51
2022-12-25T07:50:15.238Z,7.49
2022-12-25T07:52:47.059Z,7.55
2022-12-25T07:55:17.576Z,7.62
2022-12-25T07:57:50.653Z,7.63
2022-12-25T08:00:22.822Z,7.52
2022-12-25T08:02:53.529Z,7.59
2022-12-25T08:05:24.158Z,7.76
2022-12-25T08:07:58.182Z,8.02
2022-12-25T08:10:28.931Z,8.29
2022-12-25T08:13:02.092Z,8.44
2022-12-25T08:15:34.237Z,8.50
2022-12-25T08:18:04.502Z,8.66
2022-12-25T08:20:34.881Z,8.85
2022-12-25T08:23:05.340Z,8.96
2022-12-25T08:25:36.345Z,9.07
2022-12-25T08:28:09.393Z,9.12
2022-12-25T08:30:41.987Z,9.18
2022-12-25T08:33:12.571Z,9.29
2022-12-25T08:35:42.912Z,9.37
2022-12-25T08:38:13.304Z,9.53
2022-12-25T08:40:43.849Z,9.66
2022-12-25T08:43:16.861Z,9.78
2022-12-25T08:45:50.336Z,9.97
2022-12-25T08:48:20.902Z,10.16
2022-12-25T08:50:52.469Z,10.38
2022-12-25T08:53:24.040Z,10.29
2022-12-25T08:56:01.321Z,10.29
2022-12-25T08:58:34.668Z,10.58
2022-12-25T09:01:05.266Z,10.75
2022-12-25T09:03:36.590Z,11.05
2022-12-25T09:06:10.277Z,11.20
2022-12-25T09:08:48.244Z,11.04
2022-12-25T09:11:21.744Z,10.85
2022-12-25T09:13:54.910Z,10.66
2022-12-25T09:16:26.353Z,10.69
2022-12-25T09:18:59.458Z,10.62
2022-12-25T09:21:31.128Z,11.08
2022-12-25T09:24:01.574Z,11.90
2022-12-25T09:26:31.993Z,12.91
2022-12-25T09:29:07.001Z,13.71
2022-12-25T09:31:37.470Z,14.29
2022-12-25T09:34:07.920Z,14.67
2022-12-25T09:36:38.387Z,14.96
2022-12-25T09:39:08.888Z,14.89
2022-12-25T09:41:50.875Z,15.10
2022-12-25T09:44:28.003Z,15.35
2022-12-25T09:47:02.475Z,15.31
2022-12-25T09:49:41.704Z,15.03
2022-12-25T09:52:17.711Z,14.66
2022-12-25T09:54:57.881Z,14.24
2022-12-25T09:57:29.448Z,13.83
2022-12-25T10:00:02.828Z,13.87
2022-12-25T10:02:52.485Z,13.93
2022-12-25T10:05:52.496Z,14.24
2022-12-25T10:08:37.201Z,14.51
2022-12-25T10:11:22.651Z,14.31
2022-12-25T10:14:09.387Z,14.83
2022-12-25T10:17:00.479Z,15.51
2022-12-25T10:19:38.438Z,16.07
2022-12-25T10:22:19.026Z,16.19
2022-12-25T10:24:53.781Z,16.22
2022-12-25T10:27:33.019Z,16.34
2022-12-25T10:30:05.145Z,16.14
2022-12-25T10:32:38.292Z,16.09
2022-12-25T10:35:13.701Z,16.15
2022-12-25T10:37:45.275Z,16.26
2022-12-25T10:40:39.563Z,16.11
2022-12-25T10:43:18.588Z,16.00
2022-12-25T10:45:50.925Z,16.33
2022-12-25T10:48:29.518Z,16.09
2022-12-25T10:51:00.324Z,15.81
2022-12-25T10:53:31.958Z,15.77
2022-12-25T10:56:05.060Z,15.65
2022-12-25T10:58:37.165Z,15.41
2022-12-25T11:01:10.215Z,15.64
2022-12-25T11:03:48.490Z,15.78
2022-12-25T11:06:28.272Z,16.12
2022-12-25T11:09:01.686Z,16.06
2022-12-25T11:11:33.321Z,16.31
2022-12-25T11:14:07.129Z,15.84
2022-12-25T11:16:40.318Z,15.31
2022-12-25T11:19:29.681Z,15.11
2022-12-25T11:22:02.444Z,15.25
2022-12-25T11:24:35.320Z,15.30
2022-12-25T11:27:09.042Z,15.15
2022-12-25T11:29:46.028Z,14.84
2022-12-25T11:32:24.033Z,14.66
2022-12-25T11:34:57.312Z,14.90
2022-12-25T11:37:42.876Z,14.50
2022-12-25T11:40:18.305Z,14.25
2022-12-25T11:42:55.614Z,14.15
2022-12-25T11:45:34.742Z,13.92
2022-12-25T11:48:14.631Z,13.82
2022-12-25T11:50:53.081Z,13.76
2022-12-25T11:53:31.593Z,13.71
2022-12-25T11:56:06.160Z,13.49
2022-12-25T11:58:41.631Z,13.19
2022-12-25T12:01:22.422Z,13.43
2022-12-25T12:03:53.017Z,13.83
2022-12-25T12:06:36.109Z,14.33
2022-12-25T12:09:25.775Z,14.41
2022-12-25T12:12:04.596Z,14.39
2022-12-25T12:14:50.950Z,14.63
2022-12-25T12:17:22.420Z,14.71
2022-12-25T12:19:52.876Z,14.61
2022-12-25T12:22:30.549Z,14.93
2022-12-25T12:25:07.757Z,15.38
2022-12-25T12:27:41.355Z,15.39
2022-12-25T12:30:28.845Z,16.07
2022-12-25T12:33:02.244Z,16.76
2022-12-25T12:35:36.801Z,17.00
2022-12-25T12:38:17.526Z,18.12
2022-12-25T12:40:56.769Z,17.84
2022-12-25T12:43:35.128Z,17.22
2022-12-25T12:46:11.208Z,16.46
2022-12-25T12:48:48.505Z,15.92
2022-12-25T12:51:32.854Z,15.43
2022-12-25T12:54:23.116Z,15.55
2022-12-25T12:57:02.139Z,15.81
2022-12-25T12:59:43.642Z,15.15
2022-12-25T13:02:48.500Z,14.43
2022-12-25T13:05:33.963Z,14.12
2022-12-25T13:08:17.994Z,13.73
2022-12-25T13:10:53.774Z,13.28
2022-12-25T13:13:29.012Z,13.15
2022-12-25T13:15:59.655Z,12.87
2022-12-25T13:18:30.856Z,12.71
2022-12-25T13:21:05.336Z,12.66
2022-12-25T13:23:39.178Z,12.65
2022-12-25T13:26:18.609Z,12.54
2022-12-25T13:28:50.224Z,12.52
2022-12-25T13:31:25.737Z,12.43
2022-12-25T13:34:02.578Z,12.39
2022-12-25T13:36:40.332Z,12.29
2022-12-25T13:39:12.926Z,12.30
2022-12-25T13:42:02.317Z,12.33
2022-12-25T13:44:44.640Z,12.22
2022-12-25T13:47:26.697Z,12.18
2022-12-25T13:50:01.130Z,12.19
2022-12-25T13:52:37.291Z,12.19
2022-12-25T13:55:16.008Z,12.11
2022-12-25T13:57:54.053Z,12.06
2022-12-25T14:00:28.582Z,12.07
2022-12-25T14:02:59.511Z,12.03
2022-12-25T14:05:37.888Z,11.97
2022-12-25T14:08:18.963Z,12.00
2022-12-25T14:10:53.723Z,12.11
2022-12-25T14:13:30.505Z,12.13
2022-12-25T14:16:01.359Z,12.19
2022-12-25T14:18:33.155Z,12.19
2022-12-25T14:21:06.828Z,12.19
2022-12-25T14:23:44.929Z,12.14
2022-12-25T14:26:19.627Z,12.13
2022-12-25T14:28:55.831Z,12.12
2022-12-25T14:31:27.669Z,12.09
2022-12-25T14:33:58.592Z,12.04
2022-12-25T14:36:29.815Z,12.01
2022-12-25T14:39:02.143Z,11.96
2022-12-25T14:41:38.441Z,11.83
2022-12-25T14:44:36.892Z,11.72
2022-12-25T14:47:17.725Z,11.61
2022-12-25T14:49:49.719Z,11.67
2022-12-25T14:52:25.327Z,11.58
2022-12-25T14:55:00.475Z,11.53
2022-12-25T14:57:35.496Z,11.49
2022-12-25T15:00:24.873Z,11.46
2022-12-25T15:02:58.278Z,11.46
2022-12-25T15:05:35.961Z,11.52
2022-12-25T15:08:24.797Z,11.54
2022-12-25T15:11:00.447Z,11.58
2022-12-25T15:13:34.410Z,11.59
2022-12-25T15:16:15.313Z,11.64
2022-12-25T15:18:48.633Z,11.64
2022-12-25T15:21:24.417Z,11.64
2022-12-25T15:23:56.174Z,11.63
2022-12-25T15:26:27.454Z,11.66
2022-12-25T15:28:57.945Z,11.75
2022-12-25T15:31:33.330Z,11.72
2022-12-25T15:34:07.178Z,11.74
2022-12-25T15:36:37.572Z,11.78
2022-12-25T15:39:08.177Z,11.73
2022-12-25T15:41:53.996Z,11.71
2022-12-25T15:44:25.323Z,11.68
2022-12-25T15:46:58.381Z,11.71
2022-12-25T15:49:28.757Z,11.76
2022-12-25T15:51:59.203Z,11.71
2022-12-25T15:54:29.614Z,11.73
2022-12-25T15:57:04.081Z,11.74
2022-12-25T15:59:34.893Z,11.76
2022-12-25T16:02:19.741Z,11.80
2022-12-25T16:04:51.272Z,11.82
2022-12-25T16:07:25.171Z,11.79
2022-12-25T16:09:55.668Z,11.77
2022-12-25T16:12:26.182Z,11.68
2022-12-25T16:14:56.626Z,11.70
2022-12-25T16:17:29.752Z,11.63
2022-12-25T16:20:00.168Z,11.63
2022-12-25T16:22:31.977Z,11.70
2022-12-25T16:25:02.348Z,11.73
2022-12-25T16:27:32.841Z,11.73
2022-12-25T16:30:04.349Z,11.74
2022-12-25T16:32:37.361Z,11.73
2022-12-25T16:35:09.279Z,11.71
2022-12-25T16:37:40.928Z,11.76
2022-12-25T16:40:13.262Z,11.79
2022-12-25T16:42:43.848Z,11.80
2022-12-25T16:45:15.238Z,11.78
2022-12-25T16:47:48.433Z,11.78
2022-12-25T16:50:19.407Z,11.85
2022-12-25T16:52:49.456Z,11.86
2022-12-25T16:55:25.017Z,11.83
2022-12-25T16:57:58.251Z,11.86
2022-12-25T17:00:29.196Z,11.79
2022-12-25T17:03:03.247Z,11.76
2022-12-25T17:05:35.956Z,11.78
2022-12-25T17:08:06.525Z,11.77
2022-12-25T17:10:37.165Z,11.77
2022-12-25T17:13:07.628Z,11.80
2022-12-25T17:15:38.100Z,11.78
2022-12-25T17:18:11.274Z,11.82
2022-12-25T17:20:41.736Z,11.82
2022-12-25T17:23:12.115Z,11.84
2022-12-25T17:25:42.528Z,11.83
2022-12-25T17:28:12.993Z,11.86
2022-12-25T17:30:43.462Z,11.88
2022-12-25T17:33:16.531Z,11.88
2022-12-25T17:35:47.024Z,11.87
2022-12-25T17:38:17.391Z,11.92
2022-12-25T17:40:47.839Z,11.90
2022-12-25T17:43:20.994Z,11.93
2022-12-25T17:45:51.795Z,11.98
2022-12-25T17:48:24.990Z,12.01
2022-12-25T17:50:55.365Z,12.01
2022-12-25T17:53:25.808Z,12.05
2022-12-25T17:56:00.265Z,12.08
2022-12-25T17:58:32.388Z,12.14
2022-12-25T18:01:09.222Z,12.16
2022-12-25T18:03:42.663Z,12.19
2022-12-25T18:06:19.137Z,12.17
2022-12-25T18:08:50.306Z,12.21
2022-12-25T18:11:24.655Z,12.20
2022-12-25T18:13:55.385Z,12.17
2022-12-25T18:16:28.448Z,12.19
2022-12-25T18:19:02.105Z,12.21
2022-12-25T18:21:33.304Z,12.19
2022-12-25T18:24:05.283Z,12.18
2022-12-25T18:26:36.004Z,12.18
2022-12-25T18:29:07.073Z,12.20
2022-12-25T18:31:37.434Z,12.23
2022-12-25T18:34:10.476Z,12.25
2022-12-25T18:36:40.896Z,12.28
2022-12-25T18:39:11.331Z,12.32
2022-12-25T18:42:02.964Z,12.37
2022-12-25T18:44:33.824Z,12.43
2022-12-25T18:47:04.358Z,12.38
2022-12-25T18:49:38.486Z,12.38
2022-12-25T18:52:47.756Z,12.40
2022-12-25T18:54:59.499Z,12.45
2022-12-25T18:57:32.163Z,12.50
2022-12-25T19:00:03.183Z,12.51
2022-12-25T19:02:33.337Z,12.54
2022-12-25T19:05:06.973Z,12.60
2022-12-25T19:07:37.431Z,12.62
2022-12-25T19:10:10.337Z,12.64
2022-12-25T19:12:40.816Z,12.67
2022-12-25T19:15:13.672Z,12.70
2022-12-25T19:17:44.203Z,12.70
2022-12-25T19:20:17.605Z,12.71
2022-12-25T19:22:48.053Z,12.74
2022-12-25T19:25:18.849Z,12.69
2022-12-25T19:27:49.225Z,12.74
2022-12-25T19:30:19.741Z,12.78
2022-12-25T19:32:50.255Z,12.80
2022-12-25T19:35:23.290Z,12.84
2022-12-25T19:37:53.684Z,12.90
2022-12-25T19:40:24.077Z,12.91
2022-12-25T19:42:54.452Z,12.96
2022-12-25T19:45:24.861Z,12.96
2022-12-25T19:47:56.133Z,13.01
2022-12-25T19:50:30.844Z,13.01
2022-12-25T19:53:01.862Z,13.05
2022-12-25T19:55:35.555Z,13.06
2022-12-25T19:58:06.053Z,13.03
2022-12-25T20:00:36.395Z,13.02
2022-12-25T20:03:07.303Z,13.03
2022-12-25T20:05:40.263Z,13.03
2022-12-25T20:08:10.665Z,13.03
2022-12-25T20:10:47.403Z,13.09
2022-12-25T20:13:18.227Z,13.07
2022-12-25T20:15:49.513Z,13.13
2022-12-25T20:18:20.404Z,13.16
2022-12-25T20:21:01.485Z,13.16
2022-12-25T20:23:31.664Z,13.14
2022-12-25T20:26:04.907Z,13.13
2022-12-25T20:28:37.938Z,13.14
2022-12-25T20:31:09.863Z,13.21
2022-12-25T20:33:40.461Z,13.22
2022-12-25T20:36:14.335Z,13.19
2022-12-25T20:38:45.039Z,13.22
2022-12-25T20:41:27.349Z,13.25
2022-12-25T20:43:58.901Z,13.18
2022-12-25T20:46:30.928Z,13.13
2022-12-25T20:49:01.160Z,13.18
2022-12-25T20:51:34.278Z,13.15
2022-12-25T20:54:10.358Z,13.27
2022-12-25T20:56:40.794Z,13.32
2022-12-25T20:59:13.116Z,13.33
2022-12-25T21:01:45.687Z,13.38
2022-12-25T21:04:17.013Z,13.41
2022-12-25T21:06:50.071Z,13.48
2022-12-25T21:09:20.585Z,13.41
2022-12-25T21:11:50.950Z,13.44
2022-12-25T21:14:21.355Z,13.40
2022-12-25T21:16:51.912Z,13.48
2022-12-25T21:19:22.417Z,13.51
2022-12-25T21:21:55.658Z,13.49
2022-12-25T21:24:26.019Z,13.45
2022-12-25T21:26:56.365Z,13.44
2022-12-25T21:29:26.760Z,13.41
2022-12-25T21:32:09.763Z,13.30
2022-12-25T21:34:40.478Z,13.26
2022-12-25T21:37:14.833Z,13.24
2022-12-25T21:39:45.246Z,13.21
2022-12-25T21:42:15.707Z,13.21
2022-12-25T21:44:46.236Z,13.22
2022-12-25T21:47:16.647Z,13.20
2022-12-25T21:49:59.401Z,13.16
2022-12-25T21:52:32.863Z,13.14
2022-12-25T21:55:03.217Z,13.18
2022-12-25T21:57:33.614Z,13.16
2022-12-25T22:00:05.148Z,13.17
2022-12-25T22:02:36.574Z,13.16
2022-12-25T22:05:08.222Z,13.14
2022-12-25T22:07:38.692Z,13.13
2022-12-25T22:10:11.384Z,13.09
2022-12-25T22:12:54.181Z,13.10
2022-12-25T22:15:24.567Z,13.17
2022-12-25T22:18:07.276Z,13.17
2022-12-25T22:20:41.852Z,13.14
2022-12-25T22:23:16.403Z,13.11
2022-12-25T22:25:46.855Z,13.08
2022-12-25T22:28:17.630Z,13.07
2022-12-25T22:30:47.991Z,13.05
2022-12-25T22:33:20.524Z,13.04
2022-12-25T22:35:50.932Z,13.02
2022-12-25T22:38:24.031Z,13.07
2022-12-25T22:40:54.384Z,13.07
2022-12-25T22:43:43.288Z,13.10
2022-12-25T22:46:15.111Z,13.15
2022-12-25T22:48:45.470Z,13.14
2022-12-25T22:51:15.982Z,13.14
2022-12-25T22:53:50.097Z,13.09
2022-12-25T22:56:20.719Z,13.10
2022-12-25T22:58:51.187Z,13.07
2022-12-25T23:01:21.727Z,13.07
2022-12-25T23:03:56.545Z,13.03
2022-12-25T23:06:26.984Z,12.97
2022-12-25T23:09:00.129Z,13.01
2022-12-25T23:11:30.710Z,12.97
2022-12-25T23:14:22.571Z,12.99
2022-12-25T23:16:56.406Z,12.96
2022-12-25T23:19:39.380Z,12.99
2022-12-25T23:22:24.055Z,12.96
2022-12-25T23:25:09.557Z,12.99
2022-12-25T23:27:40.050Z,12.96
2022-12-25T23:30:09.401Z,12.98
2022-12-25T23:32:40.556Z,12.93
2022-12-25T23:35:12.049Z,12.87
2022-12-25T23:37:42.466Z,12.85
2022-12-25T23:40:16.155Z,12.87
2022-12-25T23:42:46.544Z,12.89
2022-12-25T23:45:17.256Z,12.88
2022-12-25T23:47:47.718Z,12.93
2022-12-25T23:50:18.280Z,12.91
2022-12-25T23:52:48.678Z,12.89
2022-12-25T23:55:21.715Z,12.89
2022-12-25T23:57:52.173Z,12.87
